sensor_id;sensor_type;location;lat;lon;timestamp;P1;durP1;ratioP1;P2;durP2;ratioP2
76848;SDS011;65814;51.134;16.980;2023-06-22T00:00:34;16.00;;;14.00;;
76848;SDS011;65814;51.134;16.980;2023-06-22T00:03:22;14.60;;;13.20;;
76848;SDS011;65814;51.134;16.980;2023-06-22T00:05:52;14.20;;;12.80;;
76848;SDS011;65814;51.134;16.980;2023-06-22T00:08:20;15.60;;;12.50;;
76848;SDS011;65814;51.134;16.980;2023-06-22T00:10:48;17.90;;;13.40;;
76848;SDS011;65814;51.134;16.980;2023-06-22T00:13:16;14.30;;;12.80;;
76848;SDS011;65814;51.134;16.980;2023-06-22T00:15:45;15.20;;;13.80;;
76848;SDS011;65814;51.134;16.980;2023-06-22T00:18:13;15.40;;;13.50;;
76848;SDS011;65814;51.134;16.980;2023-06-22T00:20:41;14.20;;;12.80;;
76848;SDS011;65814;51.134;16.980;2023-06-22T00:23:09;13.80;;;12.50;;
76848;SDS011;65814;51.134;16.980;2023-06-22T00:25:37;14.60;;;13.30;;
76848;SDS011;65814;51.134;16.980;2023-06-22T00:28:07;14.20;;;12.90;;
76848;SDS011;65814;51.134;16.980;2023-06-22T00:30:35;13.80;;;12.60;;
76848;SDS011;65814;51.134;16.980;2023-06-22T00:33:03;15.50;;;14.10;;
76848;SDS011;65814;51.134;16.980;2023-06-22T00:35:33;14.10;;;12.80;;
76848;SDS011;65814;51.134;16.980;2023-06-22T00:38:01;14.70;;;13.30;;
76848;SDS011;65814;51.134;16.980;2023-06-22T00:40:30;15.10;;;12.50;;
76848;SDS011;65814;51.134;16.980;2023-06-22T00:42:59;14.50;;;13.10;;
76848;SDS011;65814;51.134;16.980;2023-06-22T00:45:27;17.80;;;16.00;;
76848;SDS011;65814;51.134;16.980;2023-06-22T00:51:25;16.20;;;14.30;;
76848;SDS011;65814;51.134;16.980;2023-06-22T00:53:55;14.90;;;13.40;;
76848;SDS011;65814;51.134;16.980;2023-06-22T00:56:23;15.00;;;13.50;;
76848;SDS011;65814;51.134;16.980;2023-06-22T00:58:52;13.90;;;12.60;;
76848;SDS011;65814;51.134;16.980;2023-06-22T01:01:20;16.50;;;14.80;;
76848;SDS011;65814;51.134;16.980;2023-06-22T01:03:51;16.80;;;13.60;;
76848;SDS011;65814;51.134;16.980;2023-06-22T01:06:21;12.90;;;11.60;;
76848;SDS011;65814;51.134;16.980;2023-06-22T01:09:02;14.90;;;13.30;;
76848;SDS011;65814;51.134;16.980;2023-06-22T01:11:39;14.40;;;12.90;;
76848;SDS011;65814;51.134;16.980;2023-06-22T01:14:28;15.30;;;13.00;;
76848;SDS011;65814;51.134;16.980;2023-06-22T01:16:58;14.50;;;13.00;;
76848;SDS011;65814;51.134;16.980;2023-06-22T01:22:25;15.40;;;13.80;;
76848;SDS011;65814;51.134;16.980;2023-06-22T01:25:10;13.10;;;11.80;;
76848;SDS011;65814;51.134;16.980;2023-06-22T01:30:28;15.60;;;14.10;;
76848;SDS011;65814;51.134;16.980;2023-06-22T01:32:58;14.10;;;12.60;;
76848;SDS011;65814;51.134;16.980;2023-06-22T01:35:26;14.20;;;12.30;;
76848;SDS011;65814;51.134;16.980;2023-06-22T01:37:56;14.80;;;12.00;;
76848;SDS011;65814;51.134;16.980;2023-06-22T01:40:24;15.30;;;13.70;;
76848;SDS011;65814;51.134;16.980;2023-06-22T01:42:54;15.40;;;13.90;;
76848;SDS011;65814;51.134;16.980;2023-06-22T01:45:22;15.20;;;13.30;;
76848;SDS011;65814;51.134;16.980;2023-06-22T01:47:50;15.50;;;14.00;;
76848;SDS011;65814;51.134;16.980;2023-06-22T01:50:18;15.20;;;13.60;;
76848;SDS011;65814;51.134;16.980;2023-06-22T01:52:46;14.50;;;12.90;;
76848;SDS011;65814;51.134;16.980;2023-06-22T01:55:14;14.20;;;12.60;;
76848;SDS011;65814;51.134;16.980;2023-06-22T01:57:42;14.20;;;12.70;;
76848;SDS011;65814;51.134;16.980;2023-06-22T02:00:14;15.40;;;13.30;;
76848;SDS011;65814;51.134;16.980;2023-06-22T02:02:54;16.10;;;14.50;;
76848;SDS011;65814;51.134;16.980;2023-06-22T02:05:26;14.20;;;12.70;;
76848;SDS011;65814;51.134;16.980;2023-06-22T02:10:29;14.30;;;12.70;;
76848;SDS011;65814;51.134;16.980;2023-06-22T02:12:58;14.10;;;12.60;;
76848;SDS011;65814;51.134;16.980;2023-06-22T02:15:27;16.00;;;14.50;;
76848;SDS011;65814;51.134;16.980;2023-06-22T02:17:55;14.30;;;12.90;;
76848;SDS011;65814;51.134;16.980;2023-06-22T02:20:24;17.20;;;14.00;;
76848;SDS011;65814;51.134;16.980;2023-06-22T02:22:51;13.70;;;12.20;;
76848;SDS011;65814;51.134;16.980;2023-06-22T02:25:19;14.40;;;12.90;;
76848;SDS011;65814;51.134;16.980;2023-06-22T02:27:47;15.40;;;13.90;;
76848;SDS011;65814;51.134;16.980;2023-06-22T02:30:15;14.90;;;13.40;;
76848;SDS011;65814;51.134;16.980;2023-06-22T02:32:43;14.60;;;13.10;;
76848;SDS011;65814;51.134;16.980;2023-06-22T02:35:11;16.10;;;14.50;;
76848;SDS011;65814;51.134;16.980;2023-06-22T02:37:39;14.80;;;13.30;;
76848;SDS011;65814;51.134;16.980;2023-06-22T02:40:09;14.70;;;13.10;;
76848;SDS011;65814;51.134;16.980;2023-06-22T02:42:39;13.60;;;12.10;;
76848;SDS011;65814;51.134;16.980;2023-06-22T02:45:07;16.90;;;15.30;;
76848;SDS011;65814;51.134;16.980;2023-06-22T02:47:35;15.20;;;13.70;;
76848;SDS011;65814;51.134;16.980;2023-06-22T02:50:03;16.20;;;14.30;;
76848;SDS011;65814;51.134;16.980;2023-06-22T02:52:31;15.00;;;13.60;;
76848;SDS011;65814;51.134;16.980;2023-06-22T02:54:59;15.10;;;13.70;;
76848;SDS011;65814;51.134;16.980;2023-06-22T02:57:30;16.90;;;14.40;;
76848;SDS011;65814;51.134;16.980;2023-06-22T02:59:58;16.30;;;14.50;;
76848;SDS011;65814;51.134;16.980;2023-06-22T03:02:26;16.30;;;14.50;;
76848;SDS011;65814;51.134;16.980;2023-06-22T03:04:55;17.00;;;15.30;;
76848;SDS011;65814;51.134;16.980;2023-06-22T03:07:23;15.60;;;14.00;;
76848;SDS011;65814;51.134;16.980;2023-06-22T03:09:51;17.90;;;14.60;;
76848;SDS011;65814;51.134;16.980;2023-06-22T03:12:19;15.00;;;13.40;;
76848;SDS011;65814;51.134;16.980;2023-06-22T03:14:46;16.40;;;14.70;;
76848;SDS011;65814;51.134;16.980;2023-06-22T03:17:15;15.20;;;13.80;;
76848;SDS011;65814;51.134;16.980;2023-06-22T03:19:43;15.80;;;13.70;;
76848;SDS011;65814;51.134;16.980;2023-06-22T03:22:11;17.00;;;15.00;;
76848;SDS011;65814;51.134;16.980;2023-06-22T03:24:41;15.40;;;13.70;;
76848;SDS011;65814;51.134;16.980;2023-06-22T03:27:10;17.60;;;15.70;;
76848;SDS011;65814;51.134;16.980;2023-06-22T03:29:38;17.00;;;14.60;;
76848;SDS011;65814;51.134;16.980;2023-06-22T03:32:06;16.00;;;14.30;;
76848;SDS011;65814;51.134;16.980;2023-06-22T03:34:34;15.50;;;14.00;;
76848;SDS011;65814;51.134;16.980;2023-06-22T03:37:03;15.90;;;13.40;;
76848;SDS011;65814;51.134;16.980;2023-06-22T03:39:31;16.20;;;14.50;;
76848;SDS011;65814;51.134;16.980;2023-06-22T03:41:59;15.90;;;14.30;;
76848;SDS011;65814;51.134;16.980;2023-06-22T03:44:27;16.40;;;14.70;;
76848;SDS011;65814;51.134;16.980;2023-06-22T03:46:55;18.00;;;14.00;;
76848;SDS011;65814;51.134;16.980;2023-06-22T03:49:23;15.70;;;14.10;;
76848;SDS011;65814;51.134;16.980;2023-06-22T03:51:51;16.40;;;14.80;;
76848;SDS011;65814;51.134;16.980;2023-06-22T03:54:18;17.10;;;14.80;;
76848;SDS011;65814;51.134;16.980;2023-06-22T03:56:46;16.40;;;14.80;;
76848;SDS011;65814;51.134;16.980;2023-06-22T03:59:14;17.20;;;15.40;;
76848;SDS011;65814;51.134;16.980;2023-06-22T04:01:42;18.90;;;14.90;;
76848;SDS011;65814;51.134;16.980;2023-06-22T04:04:10;18.80;;;16.80;;
76848;SDS011;65814;51.134;16.980;2023-06-22T04:06:38;17.00;;;15.20;;
76848;SDS011;65814;51.134;16.980;2023-06-22T04:09:06;16.70;;;15.00;;
76848;SDS011;65814;51.134;16.980;2023-06-22T04:11:33;19.60;;;17.50;;
76848;SDS011;65814;51.134;16.980;2023-06-22T04:14:01;20.00;;;18.00;;
76848;SDS011;65814;51.134;16.980;2023-06-22T04:16:29;18.80;;;16.40;;
76848;SDS011;65814;51.134;16.980;2023-06-22T04:18:57;18.80;;;16.80;;
76848;SDS011;65814;51.134;16.980;2023-06-22T04:21:25;17.80;;;15.80;;
76848;SDS011;65814;51.134;16.980;2023-06-22T04:23:52;17.00;;;15.00;;
76848;SDS011;65814;51.134;16.980;2023-06-22T04:26:20;18.30;;;16.30;;
76848;SDS011;65814;51.134;16.980;2023-06-22T04:28:48;21.70;;;16.30;;
76848;SDS011;65814;51.134;16.980;2023-06-22T04:31:22;17.80;;;15.90;;
76848;SDS011;65814;51.134;16.980;2023-06-22T04:33:55;18.50;;;16.60;;
76848;SDS011;65814;51.134;16.980;2023-06-22T04:36:22;18.80;;;16.60;;
76848;SDS011;65814;51.134;16.980;2023-06-22T04:38:52;18.10;;;16.10;;
76848;SDS011;65814;51.134;16.980;2023-06-22T04:41:20;19.00;;;16.90;;
76848;SDS011;65814;51.134;16.980;2023-06-22T04:43:51;19.20;;;17.00;;
76848;SDS011;65814;51.134;16.980;2023-06-22T04:46:21;18.30;;;16.00;;
76848;SDS011;65814;51.134;16.980;2023-06-22T04:48:49;19.60;;;17.50;;
76848;SDS011;65814;51.134;16.980;2023-06-22T04:51:17;19.20;;;17.20;;
76848;SDS011;65814;51.134;16.980;2023-06-22T04:56:17;19.30;;;17.20;;
76848;SDS011;65814;51.134;16.980;2023-06-22T04:58:45;19.90;;;17.80;;
76848;SDS011;65814;51.134;16.980;2023-06-22T05:01:13;22.80;;;19.30;;
76848;SDS011;65814;51.134;16.980;2023-06-22T05:03:41;21.00;;;18.30;;
76848;SDS011;65814;51.134;16.980;2023-06-22T05:06:09;20.70;;;17.50;;
76848;SDS011;65814;51.134;16.980;2023-06-22T05:08:37;21.80;;;19.50;;
76848;SDS011;65814;51.134;16.980;2023-06-22T05:11:05;21.30;;;19.00;;
76848;SDS011;65814;51.134;16.980;2023-06-22T05:13:34;20.10;;;18.10;;
76848;SDS011;65814;51.134;16.980;2023-06-22T05:16:01;20.70;;;18.60;;
76848;SDS011;65814;51.134;16.980;2023-06-22T05:18:30;20.70;;;18.30;;
76848;SDS011;65814;51.134;16.980;2023-06-22T05:20:59;20.60;;;18.40;;
76848;SDS011;65814;51.134;16.980;2023-06-22T05:23:27;21.90;;;18.50;;
76848;SDS011;65814;51.134;16.980;2023-06-22T05:25:55;23.20;;;17.90;;
76848;SDS011;65814;51.134;16.980;2023-06-22T05:28:25;19.80;;;17.60;;
76848;SDS011;65814;51.134;16.980;2023-06-22T05:30:53;21.40;;;19.10;;
76848;SDS011;65814;51.134;16.980;2023-06-22T05:33:21;20.60;;;18.60;;
76848;SDS011;65814;51.134;16.980;2023-06-22T05:35:49;21.20;;;18.00;;
76848;SDS011;65814;51.134;16.980;2023-06-22T05:38:17;21.40;;;19.30;;
76848;SDS011;65814;51.134;16.980;2023-06-22T05:40:45;19.40;;;16.30;;
76848;SDS011;65814;51.134;16.980;2023-06-22T05:43:13;18.90;;;16.00;;
76848;SDS011;65814;51.134;16.980;2023-06-22T05:45:40;19.70;;;16.30;;
76848;SDS011;65814;51.134;16.980;2023-06-22T05:48:08;17.40;;;14.60;;
76848;SDS011;65814;51.134;16.980;2023-06-22T05:50:36;18.10;;;14.80;;
76848;SDS011;65814;51.134;16.980;2023-06-22T05:53:05;15.30;;;13.60;;
76848;SDS011;65814;51.134;16.980;2023-06-22T05:55:34;15.40;;;13.80;;
76848;SDS011;65814;51.134;16.980;2023-06-22T05:58:02;16.80;;;14.70;;
76848;SDS011;65814;51.134;16.980;2023-06-22T06:00:32;14.50;;;12.90;;
76848;SDS011;65814;51.134;16.980;2023-06-22T06:03:01;14.30;;;12.80;;
76848;SDS011;65814;51.134;16.980;2023-06-22T06:05:32;15.20;;;13.60;;
76848;SDS011;65814;51.134;16.980;2023-06-22T06:08:01;14.30;;;12.80;;
76848;SDS011;65814;51.134;16.980;2023-06-22T06:10:32;14.10;;;12.60;;
76848;SDS011;65814;51.134;16.980;2023-06-22T06:13:01;14.70;;;12.50;;
76848;SDS011;65814;51.134;16.980;2023-06-22T06:15:30;16.50;;;14.10;;
76848;SDS011;65814;51.134;16.980;2023-06-22T06:17:58;13.40;;;12.00;;
76848;SDS011;65814;51.134;16.980;2023-06-22T06:20:26;12.80;;;11.50;;
76848;SDS011;65814;51.134;16.980;2023-06-22T06:22:59;12.10;;;10.90;;
76848;SDS011;65814;51.134;16.980;2023-06-22T06:25:26;14.10;;;11.80;;
76848;SDS011;65814;51.134;16.980;2023-06-22T06:27:54;12.60;;;11.30;;
76848;SDS011;65814;51.134;16.980;2023-06-22T06:30:22;15.40;;;11.90;;
76848;SDS011;65814;51.134;16.980;2023-06-22T06:32:50;14.40;;;10.90;;
76848;SDS011;65814;51.134;16.980;2023-06-22T06:35:18;14.80;;;11.80;;
76848;SDS011;65814;51.134;16.980;2023-06-22T06:37:47;14.70;;;12.40;;
76848;SDS011;65814;51.134;16.980;2023-06-22T06:40:16;13.70;;;12.00;;
76848;SDS011;65814;51.134;16.980;2023-06-22T06:42:46;12.20;;;10.30;;
76848;SDS011;65814;51.134;16.980;2023-06-22T06:45:15;12.90;;;11.60;;
76848;SDS011;65814;51.134;16.980;2023-06-22T06:47:45;14.20;;;11.80;;
76848;SDS011;65814;51.134;16.980;2023-06-22T06:50:14;12.20;;;10.80;;
76848;SDS011;65814;51.134;16.980;2023-06-22T06:52:42;11.90;;;10.50;;
76848;SDS011;65814;51.134;16.980;2023-06-22T06:55:10;13.60;;;11.20;;
76848;SDS011;65814;51.134;16.980;2023-06-22T06:57:40;13.20;;;11.60;;
76848;SDS011;65814;51.134;16.980;2023-06-22T07:00:10;13.10;;;11.70;;
76848;SDS011;65814;51.134;16.980;2023-06-22T07:02:42;11.90;;;10.70;;
76848;SDS011;65814;51.134;16.980;2023-06-22T07:05:11;14.70;;;12.40;;
76848;SDS011;65814;51.134;16.980;2023-06-22T07:07:40;14.10;;;11.80;;
76848;SDS011;65814;51.134;16.980;2023-06-22T07:10:10;13.20;;;11.50;;
76848;SDS011;65814;51.134;16.980;2023-06-22T07:12:38;14.60;;;13.00;;
76848;SDS011;65814;51.134;16.980;2023-06-22T07:15:06;13.60;;;12.20;;
76848;SDS011;65814;51.134;16.980;2023-06-22T07:17:36;13.30;;;11.30;;
76848;SDS011;65814;51.134;16.980;2023-06-22T07:20:07;13.80;;;12.50;;
76848;SDS011;65814;51.134;16.980;2023-06-22T07:22:40;13.20;;;11.80;;
76848;SDS011;65814;51.134;16.980;2023-06-22T07:25:10;13.80;;;11.80;;
76848;SDS011;65814;51.134;16.980;2023-06-22T07:27:46;12.90;;;11.50;;
76848;SDS011;65814;51.134;16.980;2023-06-22T07:30:24;16.00;;;12.60;;
76848;SDS011;65814;51.134;16.980;2023-06-22T07:32:52;14.70;;;12.90;;
76848;SDS011;65814;51.134;16.980;2023-06-22T07:35:20;15.70;;;14.20;;
76848;SDS011;65814;51.134;16.980;2023-06-22T07:37:48;13.20;;;12.00;;
76848;SDS011;65814;51.134;16.980;2023-06-22T07:40:16;14.80;;;13.20;;
76848;SDS011;65814;51.134;16.980;2023-06-22T07:42:44;13.10;;;11.80;;
76848;SDS011;65814;51.134;16.980;2023-06-22T07:45:12;14.70;;;13.20;;
76848;SDS011;65814;51.134;16.980;2023-06-22T07:47:39;13.80;;;12.50;;
76848;SDS011;65814;51.134;16.980;2023-06-22T07:50:08;13.40;;;12.10;;
76848;SDS011;65814;51.134;16.980;2023-06-22T07:52:36;14.40;;;13.00;;
76848;SDS011;65814;51.134;16.980;2023-06-22T07:55:04;14.40;;;12.90;;
76848;SDS011;65814;51.134;16.980;2023-06-22T07:57:32;16.50;;;14.90;;
76848;SDS011;65814;51.134;16.980;2023-06-22T08:00:02;14.40;;;13.00;;
76848;SDS011;65814;51.134;16.980;2023-06-22T08:02:39;15.70;;;14.10;;
76848;SDS011;65814;51.134;16.980;2023-06-22T08:05:09;16.20;;;13.80;;
76848;SDS011;65814;51.134;16.980;2023-06-22T08:07:48;15.90;;;13.40;;
76848;SDS011;65814;51.134;16.980;2023-06-22T08:10:18;14.90;;;13.00;;
76848;SDS011;65814;51.134;16.980;2023-06-22T08:12:46;15.80;;;13.80;;
76848;SDS011;65814;51.134;16.980;2023-06-22T08:15:14;14.20;;;12.90;;
76848;SDS011;65814;51.134;16.980;2023-06-22T08:17:43;15.20;;;13.70;;
76848;SDS011;65814;51.134;16.980;2023-06-22T08:20:11;13.30;;;11.90;;
76848;SDS011;65814;51.134;16.980;2023-06-22T08:22:40;12.40;;;11.00;;
76848;SDS011;65814;51.134;16.980;2023-06-22T08:25:09;12.80;;;11.50;;
76848;SDS011;65814;51.134;16.980;2023-06-22T08:27:38;12.90;;;11.60;;
76848;SDS011;65814;51.134;16.980;2023-06-22T08:30:06;13.40;;;11.90;;
76848;SDS011;65814;51.134;16.980;2023-06-22T08:32:35;13.80;;;12.50;;
76848;SDS011;65814;51.134;16.980;2023-06-22T08:35:03;13.90;;;11.90;;
76848;SDS011;65814;51.134;16.980;2023-06-22T08:37:31;13.00;;;11.70;;
76848;SDS011;65814;51.134;16.980;2023-06-22T08:40:04;12.60;;;11.50;;
76848;SDS011;65814;51.134;16.980;2023-06-22T08:42:33;12.90;;;11.50;;
76848;SDS011;65814;51.134;16.980;2023-06-22T08:45:01;13.80;;;11.50;;
76848;SDS011;65814;51.134;16.980;2023-06-22T08:47:29;12.50;;;11.20;;
76848;SDS011;65814;51.134;16.980;2023-06-22T08:49:57;12.50;;;10.30;;
76848;SDS011;65814;51.134;16.980;2023-06-22T08:52:25;12.50;;;11.20;;
76848;SDS011;65814;51.134;16.980;2023-06-22T08:54:53;13.60;;;12.40;;
76848;SDS011;65814;51.134;16.980;2023-06-22T08:57:21;12.70;;;11.40;;
76848;SDS011;65814;51.134;16.980;2023-06-22T08:59:49;12.10;;;10.80;;
76848;SDS011;65814;51.134;16.980;2023-06-22T09:02:20;10.40;;;9.50;;
76848;SDS011;65814;51.134;16.980;2023-06-22T09:04:48;12.90;;;11.10;;
76848;SDS011;65814;51.134;16.980;2023-06-22T09:07:17;12.70;;;11.60;;
76848;SDS011;65814;51.134;16.980;2023-06-22T09:09:50;11.90;;;9.90;;
76848;SDS011;65814;51.134;16.980;2023-06-22T09:12:19;13.50;;;10.30;;
76848;SDS011;65814;51.134;16.980;2023-06-22T09:14:50;10.90;;;9.70;;
76848;SDS011;65814;51.134;16.980;2023-06-22T09:17:17;10.20;;;9.20;;
76848;SDS011;65814;51.134;16.980;2023-06-22T09:19:46;11.10;;;9.90;;
76848;SDS011;65814;51.134;16.980;2023-06-22T09:22:15;10.60;;;9.60;;
76848;SDS011;65814;51.134;16.980;2023-06-22T09:24:42;12.20;;;10.80;;
76848;SDS011;65814;51.134;16.980;2023-06-22T09:27:10;10.40;;;9.40;;
76848;SDS011;65814;51.134;16.980;2023-06-22T09:29:38;10.10;;;8.90;;
76848;SDS011;65814;51.134;16.980;2023-06-22T09:32:07;9.50;;;8.60;;
76848;SDS011;65814;51.134;16.980;2023-06-22T09:34:35;10.20;;;9.20;;
76848;SDS011;65814;51.134;16.980;2023-06-22T09:37:03;10.30;;;9.20;;
76848;SDS011;65814;51.134;16.980;2023-06-22T09:39:31;11.00;;;9.10;;
76848;SDS011;65814;51.134;16.980;2023-06-22T09:41:59;13.30;;;10.10;;
76848;SDS011;65814;51.134;16.980;2023-06-22T09:44:27;10.40;;;9.30;;
76848;SDS011;65814;51.134;16.980;2023-06-22T09:46:55;10.60;;;9.60;;
76848;SDS011;65814;51.134;16.980;2023-06-22T09:49:23;10.20;;;9.00;;
76848;SDS011;65814;51.134;16.980;2023-06-22T09:52:11;10.70;;;9.70;;
76848;SDS011;65814;51.134;16.980;2023-06-22T09:54:39;10.70;;;9.60;;
76848;SDS011;65814;51.134;16.980;2023-06-22T09:57:06;10.30;;;9.30;;
76848;SDS011;65814;51.134;16.980;2023-06-22T09:59:34;10.30;;;8.10;;
76848;SDS011;65814;51.134;16.980;2023-06-22T10:02:02;10.50;;;9.50;;
76848;SDS011;65814;51.134;16.980;2023-06-22T10:04:30;9.00;;;8.10;;
76848;SDS011;65814;51.134;16.980;2023-06-22T10:06:59;11.10;;;9.40;;
76848;SDS011;65814;51.134;16.980;2023-06-22T10:09:27;10.50;;;9.50;;
76848;SDS011;65814;51.134;16.980;2023-06-22T10:11:54;8.70;;;7.80;;
76848;SDS011;65814;51.134;16.980;2023-06-22T10:14:22;9.70;;;8.80;;
76848;SDS011;65814;51.134;16.980;2023-06-22T10:16:52;9.70;;;8.70;;
76848;SDS011;65814;51.134;16.980;2023-06-22T10:19:20;10.00;;;9.00;;
76848;SDS011;65814;51.134;16.980;2023-06-22T10:21:48;9.30;;;8.50;;
76848;SDS011;65814;51.134;16.980;2023-06-22T10:24:16;9.30;;;8.30;;
76848;SDS011;65814;51.134;16.980;2023-06-22T10:26:44;9.00;;;8.10;;
76848;SDS011;65814;51.134;16.980;2023-06-22T10:29:12;11.40;;;10.20;;
76848;SDS011;65814;51.134;16.980;2023-06-22T10:31:43;10.60;;;9.30;;
76848;SDS011;65814;51.134;16.980;2023-06-22T10:34:11;10.20;;;9.20;;
76848;SDS011;65814;51.134;16.980;2023-06-22T10:36:39;11.70;;;10.60;;
76848;SDS011;65814;51.134;16.980;2023-06-22T10:39:07;9.90;;;9.00;;
76848;SDS011;65814;51.134;16.980;2023-06-22T10:41:35;9.60;;;8.70;;
76848;SDS011;65814;51.134;16.980;2023-06-22T10:44:03;9.80;;;8.90;;
76848;SDS011;65814;51.134;16.980;2023-06-22T10:46:31;9.40;;;8.40;;
76848;SDS011;65814;51.134;16.980;2023-06-22T10:48:59;9.30;;;8.50;;
76848;SDS011;65814;51.134;16.980;2023-06-22T10:51:27;9.70;;;8.80;;
76848;SDS011;65814;51.134;16.980;2023-06-22T10:53:56;8.80;;;7.90;;
76848;SDS011;65814;51.134;16.980;2023-06-22T10:56:23;10.30;;;9.30;;
76848;SDS011;65814;51.134;16.980;2023-06-22T10:58:51;11.20;;;9.60;;
76848;SDS011;65814;51.134;16.980;2023-06-22T11:01:20;11.90;;;10.60;;
76848;SDS011;65814;51.134;16.980;2023-06-22T11:04:02;11.40;;;10.40;;
76848;SDS011;65814;51.134;16.980;2023-06-22T11:06:32;10.20;;;9.10;;
76848;SDS011;65814;51.134;16.980;2023-06-22T11:09:00;10.30;;;9.30;;
76848;SDS011;65814;51.134;16.980;2023-06-22T11:11:31;8.80;;;8.00;;
76848;SDS011;65814;51.134;16.980;2023-06-22T11:13:59;9.90;;;8.90;;
76848;SDS011;65814;51.134;16.980;2023-06-22T11:16:27;8.70;;;7.90;;
76848;SDS011;65814;51.134;16.980;2023-06-22T11:18:54;9.80;;;8.80;;
76848;SDS011;65814;51.134;16.980;2023-06-22T11:21:23;9.20;;;7.70;;
76848;SDS011;65814;51.134;16.980;2023-06-22T11:23:50;9.60;;;8.70;;
76848;SDS011;65814;51.134;16.980;2023-06-22T11:26:18;8.70;;;7.60;;
76848;SDS011;65814;51.134;16.980;2023-06-22T11:28:46;8.10;;;7.40;;
76848;SDS011;65814;51.134;16.980;2023-06-22T11:31:14;7.40;;;6.70;;
76848;SDS011;65814;51.134;16.980;2023-06-22T11:33:53;7.70;;;7.00;;
76848;SDS011;65814;51.134;16.980;2023-06-22T11:36:21;7.30;;;6.60;;
76848;SDS011;65814;51.134;16.980;2023-06-22T11:38:49;8.00;;;7.30;;
76848;SDS011;65814;51.134;16.980;2023-06-22T11:41:17;7.90;;;6.60;;
76848;SDS011;65814;51.134;16.980;2023-06-22T11:43:45;7.20;;;6.50;;
76848;SDS011;65814;51.134;16.980;2023-06-22T11:46:13;7.90;;;7.10;;
76848;SDS011;65814;51.134;16.980;2023-06-22T11:48:40;8.00;;;7.20;;
76848;SDS011;65814;51.134;16.980;2023-06-22T11:51:08;8.10;;;7.00;;
76848;SDS011;65814;51.134;16.980;2023-06-22T11:53:36;7.80;;;6.70;;
76848;SDS011;65814;51.134;16.980;2023-06-22T11:56:04;7.20;;;6.50;;
76848;SDS011;65814;51.134;16.980;2023-06-22T11:58:34;7.00;;;6.40;;
76848;SDS011;65814;51.134;16.980;2023-06-22T12:01:02;7.70;;;6.70;;
76848;SDS011;65814;51.134;16.980;2023-06-22T12:03:30;7.50;;;6.80;;
76848;SDS011;65814;51.134;16.980;2023-06-22T12:05:59;6.80;;;6.20;;
76848;SDS011;65814;51.134;16.980;2023-06-22T12:08:27;7.70;;;6.90;;
76848;SDS011;65814;51.134;16.980;2023-06-22T12:10:55;7.30;;;6.60;;
76848;SDS011;65814;51.134;16.980;2023-06-22T12:13:23;7.40;;;6.50;;
76848;SDS011;65814;51.134;16.980;2023-06-22T12:15:51;7.10;;;6.40;;
76848;SDS011;65814;51.134;16.980;2023-06-22T12:18:20;7.00;;;6.30;;
76848;SDS011;65814;51.134;16.980;2023-06-22T12:20:50;6.80;;;6.20;;
76848;SDS011;65814;51.134;16.980;2023-06-22T12:23:18;6.90;;;6.10;;
76848;SDS011;65814;51.134;16.980;2023-06-22T12:25:47;7.10;;;6.30;;
76848;SDS011;65814;51.134;16.980;2023-06-22T12:28:15;6.60;;;5.70;;
76848;SDS011;65814;51.134;16.980;2023-06-22T12:30:43;8.20;;;6.90;;
76848;SDS011;65814;51.134;16.980;2023-06-22T12:33:11;8.00;;;6.10;;
76848;SDS011;65814;51.134;16.980;2023-06-22T12:35:39;8.80;;;7.00;;
76848;SDS011;65814;51.134;16.980;2023-06-22T12:38:07;7.50;;;6.70;;
76848;SDS011;65814;51.134;16.980;2023-06-22T12:40:35;7.10;;;6.50;;
76848;SDS011;65814;51.134;16.980;2023-06-22T12:43:03;6.90;;;6.10;;
76848;SDS011;65814;51.134;16.980;2023-06-22T12:45:31;8.40;;;7.50;;
76848;SDS011;65814;51.134;16.980;2023-06-22T12:48:01;9.40;;;8.50;;
76848;SDS011;65814;51.134;16.980;2023-06-22T12:50:29;7.60;;;6.70;;
76848;SDS011;65814;51.134;16.980;2023-06-22T12:52:57;9.00;;;8.20;;
76848;SDS011;65814;51.134;16.980;2023-06-22T12:55:25;8.50;;;7.70;;
76848;SDS011;65814;51.134;16.980;2023-06-22T12:57:53;7.90;;;7.20;;
76848;SDS011;65814;51.134;16.980;2023-06-22T13:00:21;7.90;;;7.20;;
76848;SDS011;65814;51.134;16.980;2023-06-22T13:02:49;7.70;;;7.00;;
76848;SDS011;65814;51.134;16.980;2023-06-22T13:05:17;8.50;;;7.70;;
76848;SDS011;65814;51.134;16.980;2023-06-22T13:07:45;8.60;;;7.40;;
76848;SDS011;65814;51.134;16.980;2023-06-22T13:10:13;9.70;;;7.70;;
76848;SDS011;65814;51.134;16.980;2023-06-22T13:12:41;8.90;;;7.90;;
76848;SDS011;65814;51.134;16.980;2023-06-22T13:15:09;8.90;;;8.00;;
76848;SDS011;65814;51.134;16.980;2023-06-22T13:17:37;8.80;;;7.90;;
76848;SDS011;65814;51.134;16.980;2023-06-22T13:20:05;8.50;;;7.70;;
76848;SDS011;65814;51.134;16.980;2023-06-22T13:22:34;9.10;;;8.20;;
76848;SDS011;65814;51.134;16.980;2023-06-22T13:25:10;8.70;;;7.80;;
76848;SDS011;65814;51.134;16.980;2023-06-22T13:27:40;7.90;;;7.10;;
76848;SDS011;65814;51.134;16.980;2023-06-22T13:30:09;8.90;;;8.00;;
76848;SDS011;65814;51.134;16.980;2023-06-22T13:32:41;8.20;;;7.40;;
76848;SDS011;65814;51.134;16.980;2023-06-22T13:35:10;9.40;;;8.40;;
76848;SDS011;65814;51.134;16.980;2023-06-22T13:37:39;9.30;;;8.40;;
76848;SDS011;65814;51.134;16.980;2023-06-22T13:40:07;8.90;;;7.80;;
76848;SDS011;65814;51.134;16.980;2023-06-22T13:42:35;10.20;;;8.50;;
76848;SDS011;65814;51.134;16.980;2023-06-22T13:45:04;8.50;;;7.70;;
76848;SDS011;65814;51.134;16.980;2023-06-22T13:47:32;8.40;;;7.50;;
76848;SDS011;65814;51.134;16.980;2023-06-22T13:50:00;8.00;;;7.10;;
76848;SDS011;65814;51.134;16.980;2023-06-22T13:52:28;8.80;;;8.00;;
76848;SDS011;65814;51.134;16.980;2023-06-22T13:54:56;8.20;;;7.40;;
76848;SDS011;65814;51.134;16.980;2023-06-22T13:57:24;8.20;;;7.50;;
76848;SDS011;65814;51.134;16.980;2023-06-22T13:59:52;8.80;;;7.90;;
76848;SDS011;65814;51.134;16.980;2023-06-22T14:02:20;7.60;;;6.90;;
76848;SDS011;65814;51.134;16.980;2023-06-22T14:04:48;7.90;;;7.10;;
76848;SDS011;65814;51.134;16.980;2023-06-22T14:07:16;7.00;;;6.30;;
76848;SDS011;65814;51.134;16.980;2023-06-22T14:09:44;7.80;;;7.10;;
76848;SDS011;65814;51.134;16.980;2023-06-22T14:12:12;8.20;;;7.30;;
76848;SDS011;65814;51.134;16.980;2023-06-22T14:18:11;8.80;;;6.60;;
76848;SDS011;65814;51.134;16.980;2023-06-22T14:20:40;7.60;;;6.80;;
76848;SDS011;65814;51.134;16.980;2023-06-22T14:23:08;8.30;;;7.40;;
76848;SDS011;65814;51.134;16.980;2023-06-22T14:25:36;8.50;;;7.60;;
76848;SDS011;65814;51.134;16.980;2023-06-22T14:28:03;7.80;;;7.00;;
76848;SDS011;65814;51.134;16.980;2023-06-22T14:30:31;8.00;;;7.30;;
76848;SDS011;65814;51.134;16.980;2023-06-22T14:32:59;9.00;;;7.70;;
76848;SDS011;65814;51.134;16.980;2023-06-22T14:35:27;8.00;;;7.30;;
76848;SDS011;65814;51.134;16.980;2023-06-22T14:37:56;8.00;;;7.30;;
76848;SDS011;65814;51.134;16.980;2023-06-22T14:40:23;9.00;;;6.90;;
76848;SDS011;65814;51.134;16.980;2023-06-22T14:42:53;7.70;;;7.00;;